Time;durP1;ratioP1;P1;durP2;ratioP2;P2;SDS_P1;SDS_P2;PMS_P1;PMS_P2;Temp;Humidity;BMP_temperature;BMP_pressure;BME280_temperature;BME280_humidity;BME280_pressure;Samples;Min_cycle;Max_cycle;Signal;HPM_P1;HPM_P2
2022/05/03 00:01:22;;;;;;;;;;;7.10;99.90;;;;;;5055578;28;19923;-71
2022/05/03 00:04:02;;;;;;;;;;;7.20;99.90;;;;;;5055518;28;19952;-71
2022/05/03 00:06:37;;;;;;;;;;;7.20;99.90;;;;;;5055634;28;19924;-71
2022/05/03 00:09:04;;;;;;;;;;;7.20;99.90;;;;;;5057534;28;20292;-72
2022/05/03 00:11:38;;;;;;;;;;;7.10;99.90;;;;;;5056804;28;19917;-72
2022/05/03 00:14:22;;;;;;;;;;;7.10;99.90;;;;;;5056487;28;19927;-71
2022/05/03 00:16:49;;;;;;;;;;;7.10;99.90;;;;;;5070919;28;20701;-71
2022/05/03 00:19:14;;;;;;;;;;;7.10;99.90;;;;;;5074138;28;20027;-72
2022/05/03 00:21:41;;;;;;;;;;;7.10;99.90;;;;;;5075049;28;20006;-72
2022/05/03 00:24:07;;;;;;;;;;;7.10;99.90;;;;;;5073380;28;19912;-71
2022/05/03 00:26:33;;;;;;;;;;;7.00;99.90;;;;;;5068179;28;20328;-72
2022/05/03 00:28:59;;;;;;;;;;;7.10;99.90;;;;;;5074206;28;20365;-72
2022/05/03 00:31:25;;;;;;;;;;;7.10;99.90;;;;;;5074204;28;19916;-71
2022/05/03 00:33:51;;;;;;;;;;;7.20;99.90;;;;;;5074524;28;19912;-71
2022/05/03 00:36:16;;;;;;;;;;;7.10;99.90;;;;;;5059087;28;19932;-72
2022/05/03 00:38:42;;;;;;;;;;;7.00;99.90;;;;;;5071854;28;19916;-71
2022/05/03 00:41:08;;;;;;;;;;;7.00;99.90;;;;;;5074470;28;19998;-71
2022/05/03 00:43:49;;;;;;;;;;;7.00;99.90;;;;;;5070643;28;19917;-71
2022/05/03 00:46:20;;;;;;;;;;;6.90;99.90;;;;;;5073941;28;19920;-71
2022/05/03 00:49:06;;;;;;;;;;;6.80;99.90;;;;;;5071081;28;19931;-71
2022/05/03 00:51:32;;;;;;;;;;;6.70;99.90;;;;;;5066967;28;19923;-72
2022/05/03 00:54:07;;;;;;;;;;;6.70;99.90;;;;;;5069551;28;20002;-71
2022/05/03 00:56:39;;;;;;;;;;;6.80;99.90;;;;;;5073160;28;19920;-70
2022/05/03 00:59:23;;;;;;;;;;;7.00;99.90;;;;;;5070262;28;20211;-71
2022/05/03 01:02:02;;;;;;;;;;;6.90;99.90;;;;;;5074286;28;19912;-71
2022/05/03 01:04:31;;;;;;;;;;;6.90;99.90;;;;;;5070794;28;19918;-70
2022/05/03 01:07:03;;;;;;;;;;;6.90;99.90;;;;;;5074000;28;19920;-71
2022/05/03 01:09:37;;;;;;;;;;;6.80;99.90;;;;;;5070288;28;20307;-71
2022/05/03 01:12:21;;;;;;;;;;;6.80;99.90;;;;;;5074088;28;19928;-71
2022/05/03 01:14:49;;;;;;;;;;;6.70;99.90;;;;;;5070363;28;20455;-71
2022/05/03 01:17:15;;;;;;;;;;;6.70;99.90;;;;;;5071041;28;19971;-71
2022/05/03 01:19:47;;;;;;;;;;;6.70;99.90;;;;;;5068559;28;20559;-70
2022/05/03 01:22:12;;;;;;;;;;;6.70;99.90;;;;;;5065798;28;19924;-70
2022/05/03 01:25:04;;;;;;;;;;;6.70;99.90;;;;;;5069461;28;19916;-71
2022/05/03 01:27:50;;;;;;;;;;;6.60;99.90;;;;;;5072662;28;19960;-74
2022/05/03 01:30:16;;;;;;;;;;;6.60;99.90;;;;;;5051241;28;20015;-71
2022/05/03 01:32:43;;;;;;;;;;;6.60;99.90;;;;;;5075625;28;20253;-70
2022/05/03 01:35:11;;;;;;;;;;;6.60;99.90;;;;;;5074497;28;20034;-71
2022/05/03 01:37:46;;;;;;;;;;;6.60;99.90;;;;;;5073732;28;19912;-70
2022/05/03 01:40:16;;;;;;;;;;;6.60;99.90;;;;;;5075130;28;19927;-70
2022/05/03 01:42:50;;;;;;;;;;;6.70;99.90;;;;;;5074224;28;20338;-71
2022/05/03 01:45:22;;;;;;;;;;;6.80;99.90;;;;;;5074111;28;20006;-70
2022/05/03 01:47:55;;;;;;;;;;;6.70;99.90;;;;;;5057002;28;19924;-70
2022/05/03 01:50:21;;;;;;;;;;;6.70;99.90;;;;;;5074553;28;20259;-70
2022/05/03 01:52:55;;;;;;;;;;;6.80;99.90;;;;;;5072460;28;19962;-70
2022/05/03 01:55:27;;;;;;;;;;;6.80;99.90;;;;;;5075437;28;20303;-71
2022/05/03 01:58:11;;;;;;;;;;;6.60;99.90;;;;;;5074769;28;19916;-70
2022/05/03 02:00:37;;;;;;;;;;;6.60;99.90;;;;;;5073843;28;19989;-71
2022/05/03 02:03:07;;;;;;;;;;;6.50;99.90;;;;;;5061995;28;20318;-70
2022/05/03 02:05:45;;;;;;;;;;;6.30;99.90;;;;;;5073221;28;19920;-71
2022/05/03 02:08:13;;;;;;;;;;;6.30;99.90;;;;;;5071182;28;19924;-73
2022/05/03 02:10:58;;;;;;;;;;;6.20;99.90;;;;;;5064275;28;19927;-70
2022/05/03 02:16:30;;;;;;;;;;;6.10;99.90;;;;;;5073684;28;20073;-70
2022/05/03 02:19:04;;;;;;;;;;;6.00;99.90;;;;;;5073451;28;20334;-70
2022/05/03 02:21:37;;;;;;;;;;;5.90;99.90;;;;;;5068902;28;19935;-71
2022/05/03 02:24:08;;;;;;;;;;;5.90;99.90;;;;;;5068717;28;19956;-71
2022/05/03 02:27:04;;;;;;;;;;;5.90;99.90;;;;;;5072853;28;20226;-70
2022/05/03 02:29:40;;;;;;;;;;;5.90;99.90;;;;;;5070503;28;19921;-72
2022/05/03 02:32:08;;;;;;;;;;;5.90;99.90;;;;;;5071587;28;20326;-70
2022/05/03 02:34:33;;;;;;;;;;;5.90;99.90;;;;;;5072142;28;19920;-70
2022/05/03 02:37:06;;;;;;;;;;;5.80;99.90;;;;;;5074100;28;19982;-72
2022/05/03 02:39:32;;;;;;;;;;;5.80;99.90;;;;;;5073608;28;19912;-71
2022/05/03 02:41:59;;;;;;;;;;;5.90;99.90;;;;;;5073078;28;19920;-70
2022/05/03 02:44:27;;;;;;;;;;;5.80;99.90;;;;;;5074136;28;19916;-72
2022/05/03 02:47:01;;;;;;;;;;;5.90;99.90;;;;;;5071922;28;19920;-72
2022/05/03 02:49:39;;;;;;;;;;;5.90;99.90;;;;;;5073602;28;19912;-72
2022/05/03 02:52:20;;;;;;;;;;;5.90;99.90;;;;;;5070226;28;19932;-71
2022/05/03 02:55:06;;;;;;;;;;;6.00;99.90;;;;;;5073244;28;20215;-71
2022/05/03 02:57:47;;;;;;;;;;;6.10;99.90;;;;;;5071405;28;19920;-71
2022/05/03 03:03:05;;;;;;;;;;;6.10;99.90;;;;;;5056725;28;20251;-71
2022/05/03 03:05:31;;;;;;;;;;;6.10;99.90;;;;;;5074718;28;20197;-72
2022/05/03 03:08:01;;;;;;;;;;;6.10;99.90;;;;;;5072500;28;20311;-72
2022/05/03 03:10:42;;;;;;;;;;;6.00;99.90;;;;;;5055814;28;19996;-72
2022/05/03 03:13:11;;;;;;;;;;;6.00;99.90;;;;;;5071034;28;19978;-71
2022/05/03 03:15:38;;;;;;;;;;;6.00;99.90;;;;;;5055553;28;19909;-72
2022/05/03 03:18:06;;;;;;;;;;;6.00;99.90;;;;;;5063996;28;20295;-72
2022/05/03 03:20:36;;;;;;;;;;;5.90;99.90;;;;;;5070689;28;19923;-72
2022/05/03 03:23:02;;;;;;;;;;;5.80;99.90;;;;;;5064909;28;20338;-71
2022/05/03 03:25:29;;;;;;;;;;;5.80;99.90;;;;;;5049015;28;19929;-72
2022/05/03 03:27:56;;;;;;;;;;;5.80;99.90;;;;;;5072897;28;19916;-72
2022/05/03 03:30:22;;;;;;;;;;;5.80;99.90;;;;;;5072697;28;19919;-72
2022/05/03 03:32:51;;;;;;;;;;;5.80;99.90;;;;;;5072721;28;19913;-72
2022/05/03 03:35:17;;;;;;;;;;;5.80;99.90;;;;;;5074523;28;19908;-72
2022/05/03 03:37:44;;;;;;;;;;;5.90;99.90;;;;;;5070492;28;19942;-72
2022/05/03 03:40:10;;;;;;;;;;;5.90;99.90;;;;;;5069897;28;19958;-72
2022/05/03 03:42:36;;;;;;;;;;;5.80;99.90;;;;;;5047330;28;19966;-72
2022/05/03 03:45:07;;;;;;;;;;;5.70;99.90;;;;;;5063393;28;20524;-72
2022/05/03 03:47:32;;;;;;;;;;;5.60;99.90;;;;;;5069349;28;20318;-72
2022/05/03 03:49:59;;;;;;;;;;;5.70;99.90;;;;;;5070708;28;19919;-72
2022/05/03 03:52:25;;;;;;;;;;;5.70;99.90;;;;;;5072551;28;20253;-72
2022/05/03 03:54:52;;;;;;;;;;;5.80;99.90;;;;;;5073546;28;20307;-72
2022/05/03 03:57:20;;;;;;;;;;;5.80;99.90;;;;;;5071182;28;19920;-72
2022/05/03 03:59:46;;;;;;;;;;;5.70;99.90;;;;;;5070334;28;19913;-72
2022/05/03 04:02:12;;;;;;;;;;;5.60;99.90;;;;;;5072023;28;19916;-72
2022/05/03 04:04:38;;;;;;;;;;;5.60;99.90;;;;;;5070738;28;19939;-72
2022/05/03 04:07:04;;;;;;;;;;;5.60;99.90;;;;;;5071395;28;20372;-72
2022/05/03 04:09:30;;;;;;;;;;;5.60;99.90;;;;;;5068940;28;19920;-72
2022/05/03 04:11:56;;;;;;;;;;;5.70;99.90;;;;;;5071704;28;19982;-72
2022/05/03 04:14:21;;;;;;;;;;;5.80;99.90;;;;;;5068693;28;19917;-72
2022/05/03 04:16:47;;;;;;;;;;;5.70;99.90;;;;;;5071809;28;19960;-72
2022/05/03 04:19:13;;;;;;;;;;;5.70;99.90;;;;;;5075294;28;20030;-72
2022/05/03 04:21:39;;;;;;;;;;;5.70;99.90;;;;;;5073947;28;19946;-72
2022/05/03 04:24:04;;;;;;;;;;;5.70;99.90;;;;;;5072600;28;20303;-72
2022/05/03 04:26:30;;;;;;;;;;;5.80;99.90;;;;;;5070163;28;19920;-72
2022/05/03 04:28:59;;;;;;;;;;;5.90;99.90;;;;;;5073995;28;20215;-72
2022/05/03 04:31:25;;;;;;;;;;;6.00;99.90;;;;;;5075791;28;19939;-72
2022/05/03 04:33:51;;;;;;;;;;;6.10;99.90;;;;;;5081647;28;19954;-72
2022/05/03 04:36:17;;;;;;;;;;;6.20;99.90;;;;;;5070585;28;19956;-72
2022/05/03 04:38:43;;;;;;;;;;;6.20;99.90;;;;;;5070413;28;19928;-72
2022/05/03 04:41:08;;;;;;;;;;;6.40;99.90;;;;;;5075568;28;20350;-72
2022/05/03 04:43:34;;;;;;;;;;;6.40;99.90;;;;;;5067114;28;19948;-72
2022/05/03 04:46:00;;;;;;;;;;;6.50;99.90;;;;;;5065845;28;20319;-72
2022/05/03 04:48:26;;;;;;;;;;;6.50;99.90;;;;;;5074548;28;20311;-71
2022/05/03 04:50:51;;;;;;;;;;;6.60;99.90;;;;;;5076087;28;19939;-72
2022/05/03 04:53:17;;;;;;;;;;;6.70;99.90;;;;;;5075754;28;19920;-72
2022/05/03 04:55:43;;;;;;;;;;;6.90;99.90;;;;;;5075901;28;19916;-72
2022/05/03 04:58:08;;;;;;;;;;;6.90;99.90;;;;;;5073303;28;19923;-71
2022/05/03 05:00:34;;;;;;;;;;;7.10;99.90;;;;;;5075085;28;19922;-72
2022/05/03 05:02:59;;;;;;;;;;;7.20;99.90;;;;;;5073756;28;19999;-72
2022/05/03 05:05:25;;;;;;;;;;;7.30;99.90;;;;;;5074973;28;19917;-72
2022/05/03 05:07:51;;;;;;;;;;;7.40;99.90;;;;;;5075360;28;19920;-73
2022/05/03 05:10:28;;;;;;;;;;;7.50;99.90;;;;;;5074525;28;19920;-72
2022/05/03 05:12:54;;;;;;;;;;;7.50;99.90;;;;;;5074281;28;19982;-72
2022/05/03 05:15:23;;;;;;;;;;;7.60;99.90;;;;;;5072575;28;20394;-72
2022/05/03 05:17:49;;;;;;;;;;;7.70;99.90;;;;;;5072385;28;20380;-72
2022/05/03 05:20:15;;;;;;;;;;;7.80;99.90;;;;;;5073438;28;19912;-72
2022/05/03 05:22:42;;;;;;;;;;;7.90;99.90;;;;;;5075103;28;19983;-72
2022/05/03 05:25:08;;;;;;;;;;;8.00;99.90;;;;;;5075391;28;20008;-72
2022/05/03 05:27:33;;;;;;;;;;;8.10;99.90;;;;;;5054041;28;20015;-72
2022/05/03 05:29:59;;;;;;;;;;;8.20;99.90;;;;;;5067868;28;20029;-72
2022/05/03 05:32:25;;;;;;;;;;;8.30;99.90;;;;;;5071367;28;20342;-72
2022/05/03 05:34:50;;;;;;;;;;;8.40;99.90;;;;;;5073859;28;19916;-72
2022/05/03 05:37:16;;;;;;;;;;;8.50;99.90;;;;;;5074403;28;19961;-72
2022/05/03 05:39:41;;;;;;;;;;;8.60;99.90;;;;;;5073828;28;19992;-72
2022/05/03 05:42:07;;;;;;;;;;;8.70;99.90;;;;;;5074395;28;19912;-72
2022/05/03 05:44:33;;;;;;;;;;;8.90;99.90;;;;;;5066866;28;20017;-72
2022/05/03 05:46:59;;;;;;;;;;;9.00;99.90;;;;;;5073534;28;19928;-72
2022/05/03 05:49:24;;;;;;;;;;;9.10;99.90;;;;;;5059755;28;19924;-72
2022/05/03 05:51:50;;;;;;;;;;;9.20;99.90;;;;;;5058420;28;19917;-72
2022/05/03 05:54:18;;;;;;;;;;;9.30;99.90;;;;;;5070720;28;19986;-72
2022/05/03 05:56:45;;;;;;;;;;;9.30;99.90;;;;;;5075346;28;19913;-71
2022/05/03 05:59:10;;;;;;;;;;;9.40;99.90;;;;;;5061995;28;19917;-72
2022/05/03 06:01:39;;;;;;;;;;;9.50;99.90;;;;;;5071415;28;20223;-72
2022/05/03 06:04:05;;;;;;;;;;;9.60;99.90;;;;;;5075546;28;19960;-72
2022/05/03 06:06:35;;;;;;;;;;;9.60;99.90;;;;;;5069347;28;19952;-72
2022/05/03 06:09:02;;;;;;;;;;;9.70;99.90;;;;;;5069576;28;19912;-72
2022/05/03 06:11:29;;;;;;;;;;;9.90;99.90;;;;;;5073423;28;19917;-72
2022/05/03 06:13:54;;;;;;;;;;;10.00;99.90;;;;;;5072126;28;19935;-72
2022/05/03 06:16:20;;;;;;;;;;;10.10;99.90;;;;;;5064868;28;19912;-73
2022/05/03 06:18:46;;;;;;;;;;;10.10;99.90;;;;;;5073516;28;19965;-73
2022/05/03 06:21:12;;;;;;;;;;;10.20;99.90;;;;;;5073002;28;19948;-72
2022/05/03 06:23:37;;;;;;;;;;;10.40;99.90;;;;;;5073143;28;19912;-72
2022/05/03 06:26:09;;;;;;;;;;;10.40;99.90;;;;;;5073991;28;20003;-72
2022/05/03 06:28:34;;;;;;;;;;;10.50;99.90;;;;;;5072598;28;19964;-72
2022/05/03 06:31:00;;;;;;;;;;;10.50;99.90;;;;;;5068543;28;19962;-72
2022/05/03 06:33:26;;;;;;;;;;;10.50;99.90;;;;;;5073608;28;19913;-72
2022/05/03 06:35:52;;;;;;;;;;;10.60;99.90;;;;;;5073517;28;19927;-71
2022/05/03 06:38:18;;;;;;;;;;;10.60;99.90;;;;;;5073405;28;19916;-71
2022/05/03 06:40:43;;;;;;;;;;;10.70;99.90;;;;;;5073220;28;19978;-71
2022/05/03 06:43:09;;;;;;;;;;;10.80;99.90;;;;;;5073961;28;19928;-71
2022/05/03 06:45:35;;;;;;;;;;;10.80;99.90;;;;;;5072729;28;19916;-71
2022/05/03 06:48:01;;;;;;;;;;;10.90;99.90;;;;;;5073183;28;19923;-71
2022/05/03 06:50:27;;;;;;;;;;;10.90;99.90;;;;;;5071102;28;19919;-71
2022/05/03 06:52:52;;;;;;;;;;;10.90;99.90;;;;;;5073656;28;19952;-71
2022/05/03 06:55:18;;;;;;;;;;;11.00;99.90;;;;;;5073377;28;19959;-71
2022/05/03 06:57:44;;;;;;;;;;;11.00;99.90;;;;;;5073447;28;19920;-72
2022/05/03 07:00:10;;;;;;;;;;;10.90;99.90;;;;;;5073382;28;20218;-72
2022/05/03 07:02:36;;;;;;;;;;;10.90;99.90;;;;;;5073287;28;20224;-71
2022/05/03 07:05:05;;;;;;;;;;;11.10;99.90;;;;;;5072374;28;19912;-71
2022/05/03 07:07:30;;;;;;;;;;;11.30;99.90;;;;;;5072376;28;19917;-72
2022/05/03 07:09:56;;;;;;;;;;;11.40;99.90;;;;;;5072762;28;20012;-71
2022/05/03 07:12:22;;;;;;;;;;;11.60;99.90;;;;;;5072378;28;20295;-71
2022/05/03 07:14:48;;;;;;;;;;;11.70;99.90;;;;;;5061915;28;19916;-71
2022/05/03 07:22:45;;;;;;;;;;;12.00;99.90;;;;;;5074558;28;19920;-71
2022/05/03 07:22:46;;;;;;;;;;;12.20;99.90;;;;;;5070881;28;19923;-71
2022/05/03 07:25:17;;;;;;;;;;;12.30;99.90;;;;;;5072522;28;20007;-71
2022/05/03 07:27:46;;;;;;;;;;;12.30;99.90;;;;;;5068800;28;20196;-72
2022/05/03 07:30:15;;;;;;;;;;;12.20;99.90;;;;;;5067645;28;19932;-71
2022/05/03 07:32:44;;;;;;;;;;;12.30;99.90;;;;;;5069875;28;19912;-70
2022/05/03 07:35:11;;;;;;;;;;;12.20;99.90;;;;;;5071605;28;19912;-70
2022/05/03 07:37:38;;;;;;;;;;;12.30;99.90;;;;;;5071018;28;19956;-70
2022/05/03 07:40:04;;;;;;;;;;;12.50;99.90;;;;;;5072646;28;19920;-70
2022/05/03 07:42:30;;;;;;;;;;;12.40;99.90;;;;;;5072276;28;19944;-70
2022/05/03 07:44:55;;;;;;;;;;;12.40;99.90;;;;;;5072688;28;20294;-70
2022/05/03 07:47:21;;;;;;;;;;;12.40;99.90;;;;;;5069918;28;19916;-71
2022/05/03 07:49:46;;;;;;;;;;;12.30;99.90;;;;;;5072114;28;20496;-70
2022/05/03 07:52:12;;;;;;;;;;;12.30;99.90;;;;;;5072981;28;20013;-70
2022/05/03 07:54:41;;;;;;;;;;;12.30;99.90;;;;;;5072779;28;19920;-71
2022/05/03 07:57:07;;;;;;;;;;;12.00;99.90;;;;;;5074562;28;20216;-71
2022/05/03 07:59:33;;;;;;;;;;;12.10;99.90;;;;;;5072222;28;19925;-71
2022/05/03 08:01:59;;;;;;;;;;;12.20;99.90;;;;;;5070319;28;19912;-71
2022/05/03 08:04:25;;;;;;;;;;;12.00;99.90;;;;;;5075563;28;20350;-71
2022/05/03 08:06:51;;;;;;;;;;;12.20;99.90;;;;;;5074877;28;19970;-71
2022/05/03 08:09:17;;;;;;;;;;;12.10;99.90;;;;;;5077937;28;20176;-72
2022/05/03 08:11:42;;;;;;;;;;;12.10;99.90;;;;;;5077958;28;20012;-72
2022/05/03 08:14:08;;;;;;;;;;;12.00;99.90;;;;;;5077733;28;19917;-70
2022/05/03 08:16:34;;;;;;;;;;;12.20;99.90;;;;;;5076107;28;19924;-70
2022/05/03 08:18:59;;;;;;;;;;;12.30;99.90;;;;;;5072161;28;20207;-70
2022/05/03 08:21:28;;;;;;;;;;;12.30;99.90;;;;;;5074132;28;20122;-71
2022/05/03 08:23:54;;;;;;;;;;;12.30;99.90;;;;;;5076297;28;19920;-71
2022/05/03 08:26:20;;;;;;;;;;;12.20;99.90;;;;;;5064692;28;19947;-70
2022/05/03 08:28:46;;;;;;;;;;;12.20;99.90;;;;;;5075645;28;20143;-71
2022/05/03 08:31:12;;;;;;;;;;;12.20;99.90;;;;;;5075997;28;20277;-71
2022/05/03 08:33:37;;;;;;;;;;;12.30;99.90;;;;;;5075757;28;20223;-71
2022/05/03 08:36:03;;;;;;;;;;;12.30;99.90;;;;;;5073619;28;20282;-71
2022/05/03 08:43:58;;;;;;;;;;;12.20;99.90;;;;;;5075340;28;20005;-71
2022/05/03 08:46:24;;;;;;;;;;;12.40;99.90;;;;;;5074661;28;20011;-70
2022/05/03 08:48:53;;;;;;;;;;;12.50;99.90;;;;;;5072311;28;19916;-71
2022/05/03 08:51:20;;;;;;;;;;;12.70;99.90;;;;;;5072562;28;19920;-71
2022/05/03 08:53:46;;;;;;;;;;;12.80;99.90;;;;;;5074092;28;19919;-72
2022/05/03 08:56:12;;;;;;;;;;;12.80;99.90;;;;;;5075010;28;19913;-70
2022/05/03 08:58:38;;;;;;;;;;;12.90;99.90;;;;;;5074296;28;19912;-70
2022/05/03 09:01:04;;;;;;;;;;;12.90;99.90;;;;;;5056704;28;19977;-71
2022/05/03 09:03:30;;;;;;;;;;;12.90;99.90;;;;;;5075763;28;19909;-71
2022/05/03 09:05:56;;;;;;;;;;;12.80;99.90;;;;;;5049527;28;19930;-70
2022/05/03 09:08:23;;;;;;;;;;;12.90;99.90;;;;;;5071390;28;19999;-71
2022/05/03 09:10:49;;;;;;;;;;;12.80;99.90;;;;;;5053653;28;19924;-70
2022/05/03 09:13:20;;;;;;;;;;;12.90;99.90;;;;;;5066672;28;19932;-70
2022/05/03 09:15:50;;;;;;;;;;;13.00;99.90;;;;;;5058592;28;19920;-71
2022/05/03 09:18:23;;;;;;;;;;;13.00;99.90;;;;;;5071158;28;19935;-70
2022/05/03 09:23:49;;;;;;;;;;;13.50;99.90;;;;;;5062077;28;20265;-70
2022/05/03 09:26:17;;;;;;;;;;;13.80;99.90;;;;;;5049547;28;19917;-70
2022/05/03 09:28:44;;;;;;;;;;;14.40;99.90;;;;;;5060407;28;19912;-70
2022/05/03 09:31:09;;;;;;;;;;;14.90;99.90;;;;;;5073265;28;20296;-70
2022/05/03 09:33:37;;;;;;;;;;;15.10;99.90;;;;;;5072263;28;19995;-70
2022/05/03 09:36:10;;;;;;;;;;;15.10;99.90;;;;;;5074079;28;19928;-70
2022/05/03 09:38:46;;;;;;;;;;;14.80;99.90;;;;;;5067062;28;19912;-71
2022/05/03 09:41:14;;;;;;;;;;;14.70;99.90;;;;;;5071165;28;19928;-71
2022/05/03 09:43:59;;;;;;;;;;;14.60;99.90;;;;;;5074111;28;19951;-70
2022/05/03 09:46:24;;;;;;;;;;;14.60;99.90;;;;;;5073507;28;20223;-70
2022/05/03 09:48:51;;;;;;;;;;;14.70;99.90;;;;;;5072927;28;19916;-71
2022/05/03 09:51:16;;;;;;;;;;;14.40;99.90;;;;;;5073723;28;19917;-71
2022/05/03 09:53:42;;;;;;;;;;;14.10;99.90;;;;;;5073395;28;19921;-69
2022/05/03 09:56:09;;;;;;;;;;;13.90;99.90;;;;;;5073833;28;19947;-70
2022/05/03 09:58:37;;;;;;;;;;;13.80;99.90;;;;;;5073849;28;19919;-70
2022/05/03 10:01:03;;;;;;;;;;;13.60;99.90;;;;;;5071933;28;20012;-71
2022/05/03 10:03:28;;;;;;;;;;;13.60;99.90;;;;;;5071857;28;20050;-71
2022/05/03 10:05:55;;;;;;;;;;;13.20;99.90;;;;;;5072953;28;20006;-71
2022/05/03 10:08:21;;;;;;;;;;;13.20;99.90;;;;;;5072844;28;19917;-71
2022/05/03 10:10:56;;;;;;;;;;;13.20;99.90;;;;;;5072553;28;19912;-71
2022/05/03 10:13:21;;;;;;;;;;;13.00;99.90;;;;;;5072476;28;19927;-70
2022/05/03 10:21:27;;;;;;;;;;;12.90;99.90;;;;;;5073302;28;20223;-70
2022/05/03 10:24:09;;;;;;;;;;;13.00;99.90;;;;;;5074252;28;20378;-71
2022/05/03 10:26:54;;;;;;;;;;;13.00;99.90;;;;;;5071482;28;19916;-71
2022/05/03 10:29:21;;;;;;;;;;;13.10;99.90;;;;;;5062953;28;19912;-71
2022/05/03 10:31:57;;;;;;;;;;;13.00;99.90;;;;;;5071686;28;19921;-70
2022/05/03 10:34:41;;;;;;;;;;;12.80;99.90;;;;;;5070004;28;20377;-70
2022/05/03 10:37:07;;;;;;;;;;;12.50;99.90;;;;;;5073671;28;19951;-70
2022/05/03 10:39:33;;;;;;;;;;;12.10;99.90;;;;;;5070335;28;20010;-70
2022/05/03 10:42:00;;;;;;;;;;;11.90;99.90;;;;;;5070710;28;19999;-70
2022/05/03 10:44:45;;;;;;;;;;;11.80;99.90;;;;;;5074473;28;19908;-72
2022/05/03 10:47:12;;;;;;;;;;;11.80;99.90;;;;;;5071887;28;19917;-70
2022/05/03 10:49:56;;;;;;;;;;;11.80;99.90;;;;;;5073895;28;19912;-70
2022/05/03 10:52:22;;;;;;;;;;;11.80;99.90;;;;;;5070764;28;19917;-71
2022/05/03 10:55:06;;;;;;;;;;;11.70;99.90;;;;;;5072965;28;19916;-70
2022/05/03 10:57:32;;;;;;;;;;;11.60;99.90;;;;;;5056938;28;19913;-70
2022/05/03 10:59:58;;;;;;;;;;;11.50;99.90;;;;;;5072527;28;19919;-70
2022/05/03 11:02:24;;;;;;;;;;;11.30;99.90;;;;;;5063376;28;20211;-70
2022/05/03 11:05:08;;;;;;;;;;;11.30;99.90;;;;;;5070578;28;19995;-70
2022/05/03 11:07:35;;;;;;;;;;;11.30;99.90;;;;;;5073799;28;20326;-70
2022/05/03 11:10:19;;;;;;;;;;;11.30;99.90;;;;;;5072196;28;20421;-71
2022/05/03 11:12:48;;;;;;;;;;;11.30;99.90;;;;;;5068095;28;19972;-71
2022/05/03 11:15:14;;;;;;;;;;;11.40;99.90;;;;;;5070102;28;19986;-70
2022/05/03 11:17:43;;;;;;;;;;;11.60;99.90;;;;;;5072860;28;20303;-70
2022/05/03 11:20:08;;;;;;;;;;;11.60;99.90;;;;;;5071290;28;19916;-71
2022/05/03 11:22:35;;;;;;;;;;;11.80;99.90;;;;;;5069605;28;19973;-70
2022/05/03 11:25:13;;;;;;;;;;;11.70;99.90;;;;;;5071526;28;19995;-70
2022/05/03 11:27:39;;;;;;;;;;;11.90;99.90;;;;;;5076308;28;20061;-70
2022/05/03 11:30:07;;;;;;;;;;;12.00;99.90;;;;;;5076347;28;20006;-70
2022/05/03 11:32:37;;;;;;;;;;;12.20;99.90;;;;;;5077219;28;19981;-69
2022/05/03 11:35:04;;;;;;;;;;;12.50;99.90;;;;;;5075281;28;19948;-70
2022/05/03 11:37:30;;;;;;;;;;;12.60;99.90;;;;;;5075964;28;19912;-70
2022/05/03 11:40:03;;;;;;;;;;;12.50;99.90;;;;;;5072223;28;19921;-70
2022/05/03 11:42:34;;;;;;;;;;;12.60;99.90;;;;;;5070878;28;19916;-70
2022/05/03 11:45:00;;;;;;;;;;;12.80;99.90;;;;;;5069711;28;19947;-70
2022/05/03 11:47:26;;;;;;;;;;;12.70;99.90;;;;;;5070129;28;19964;-70
2022/05/03 11:49:52;;;;;;;;;;;12.40;99.90;;;;;;5073578;28;20295;-69
2022/05/03 11:57:46;;;;;;;;;;;12.20;99.90;;;;;;5069736;28;20266;-70
2022/05/03 12:00:15;;;;;;;;;;;12.20;99.90;;;;;;5070321;28;19916;-69
2022/05/03 12:02:41;;;;;;;;;;;12.10;99.90;;;;;;5054733;28;19995;-72
2022/05/03 12:05:17;;;;;;;;;;;12.00;99.90;;;;;;5072849;28;19918;-70
2022/05/03 12:07:46;;;;;;;;;;;12.30;99.90;;;;;;5073290;28;20435;-70
2022/05/03 12:10:14;;;;;;;;;;;12.40;99.90;;;;;;5071688;28;19923;-70
2022/05/03 12:12:43;;;;;;;;;;;12.40;99.90;;;;;;5071800;28;19986;-70
2022/05/03 12:15:18;;;;;;;;;;;12.30;99.90;;;;;;5072656;28;19923;-70
2022/05/03 12:17:52;;;;;;;;;;;12.20;99.90;;;;;;5071603;28;19920;-71
2022/05/03 12:20:18;;;;;;;;;;;12.10;99.90;;;;;;5073275;28;19927;-70
2022/05/03 12:22:44;;;;;;;;;;;12.10;99.90;;;;;;5073213;28;19920;-69
2022/05/03 12:25:09;;;;;;;;;;;12.30;99.90;;;;;;5070991;28;19995;-69
2022/05/03 12:27:35;;;;;;;;;;;12.30;99.90;;;;;;5073451;28;20188;-69
2022/05/03 12:30:10;;;;;;;;;;;12.30;99.90;;;;;;5073330;28;20317;-70
2022/05/03 12:32:35;;;;;;;;;;;12.00;99.90;;;;;;5072573;28;19916;-69
2022/05/03 12:35:02;;;;;;;;;;;11.80;99.90;;;;;;5073223;28;20272;-72
2022/05/03 12:37:28;;;;;;;;;;;11.90;99.90;;;;;;5069818;28;20227;-70
2022/05/03 12:40:00;;;;;;;;;;;11.90;99.90;;;;;;5071615;28;19917;-69
2022/05/03 12:42:26;;;;;;;;;;;12.00;99.90;;;;;;5071010;28;20303;-70
2022/05/03 12:44:54;;;;;;;;;;;12.00;99.90;;;;;;5072986;28;19924;-69
2022/05/03 12:47:21;;;;;;;;;;;11.90;99.90;;;;;;5068196;28;20384;-69
2022/05/03 12:49:47;;;;;;;;;;;12.00;99.90;;;;;;5072373;28;19969;-70
2022/05/03 12:52:13;;;;;;;;;;;12.10;99.90;;;;;;5072093;28;20280;-69
2022/05/03 12:54:43;;;;;;;;;;;12.10;99.90;;;;;;5072977;28;19999;-70
2022/05/03 12:59:54;;;;;;;;;;;12.00;99.90;;;;;;5072561;28;20040;-69
2022/05/03 13:02:20;;;;;;;;;;;12.00;99.90;;;;;;5045780;28;19927;-69
2022/05/03 13:04:46;;;;;;;;;;;11.90;99.90;;;;;;5071283;28;19917;-70
2022/05/03 13:07:11;;;;;;;;;;;12.00;99.90;;;;;;5072195;28;19920;-70
2022/05/03 13:09:37;;;;;;;;;;;12.10;99.90;;;;;;5063607;28;20304;-69
2022/05/03 13:12:03;;;;;;;;;;;12.00;99.90;;;;;;5072321;28;19929;-69
2022/05/03 13:14:29;;;;;;;;;;;12.10;99.90;;;;;;5070590;28;19927;-70
2022/05/03 13:16:55;;;;;;;;;;;12.00;99.90;;;;;;5071727;28;19916;-69
2022/05/03 13:19:21;;;;;;;;;;;12.10;99.90;;;;;;5072236;28;20227;-70
2022/05/03 13:21:47;;;;;;;;;;;12.30;99.90;;;;;;5070216;28;19920;-70
2022/05/03 13:24:16;;;;;;;;;;;12.20;99.90;;;;;;5071846;28;19916;-69
2022/05/03 13:26:44;;;;;;;;;;;12.10;99.90;;;;;;5071051;28;19920;-70
2022/05/03 13:29:11;;;;;;;;;;;12.10;99.90;;;;;;5070652;28;20330;-70
2022/05/03 13:31:37;;;;;;;;;;;12.10;99.90;;;;;;5070618;28;19920;-70
2022/05/03 13:34:04;;;;;;;;;;;12.30;99.90;;;;;;5071610;28;20581;-70
2022/05/03 13:42:18;;;;;;;;;;;12.10;99.90;;;;;;5028238;28;19931;-69
2022/05/03 13:44:43;;;;;;;;;;;12.10;99.90;;;;;;5052400;28;20374;-70
2022/05/03 13:47:10;;;;;;;;;;;12.20;99.90;;;;;;5067928;28;19955;-70
2022/05/03 13:49:35;;;;;;;;;;;12.10;99.90;;;;;;5068323;28;19969;-70
2022/05/03 13:52:01;;;;;;;;;;;12.10;99.90;;;;;;5071471;28;20558;-69
2022/05/03 13:54:27;;;;;;;;;;;12.00;99.90;;;;;;5070701;28;19917;-70
2022/05/03 13:56:53;;;;;;;;;;;12.10;99.90;;;;;;5067688;28;19917;-70
2022/05/03 13:59:19;;;;;;;;;;;11.90;99.90;;;;;;5068045;28;19923;-73
2022/05/03 14:01:44;;;;;;;;;;;12.00;99.90;;;;;;5070831;28;19916;-73
2022/05/03 14:04:10;;;;;;;;;;;11.90;99.90;;;;;;5071067;28;20009;-71
2022/05/03 14:06:35;;;;;;;;;;;11.90;99.90;;;;;;5068222;28;19932;-70
2022/05/03 14:09:01;;;;;;;;;;;12.00;99.90;;;;;;5062995;28;19917;-70
2022/05/03 14:11:27;;;;;;;;;;;12.20;99.90;;;;;;5071063;28;20005;-70
2022/05/03 14:13:52;;;;;;;;;;;12.30;99.90;;;;;;5070975;28;19966;-71
2022/05/03 14:16:18;;;;;;;;;;;12.40;99.90;;;;;;5062936;28;19939;-70
2022/05/03 14:18:44;;;;;;;;;;;12.40;99.90;;;;;;5071588;28;20227;-70
2022/05/03 14:21:09;;;;;;;;;;;12.30;99.90;;;;;;5071099;28;19917;-70
2022/05/03 14:23:35;;;;;;;;;;;12.20;99.90;;;;;;5070788;28;19916;-70
2022/05/03 14:26:01;;;;;;;;;;;12.20;99.90;;;;;;5071182;28;20258;-70
2022/05/03 14:28:27;;;;;;;;;;;12.20;99.90;;;;;;5067882;28;19928;-70
2022/05/03 14:30:53;;;;;;;;;;;12.20;99.90;;;;;;5068573;28;20412;-69
2022/05/03 14:33:18;;;;;;;;;;;12.20;99.90;;;;;;5070777;28;20019;-70
2022/05/03 14:35:44;;;;;;;;;;;12.20;99.90;;;;;;5070873;28;20287;-70
2022/05/03 14:38:10;;;;;;;;;;;12.20;99.90;;;;;;5070329;28;20339;-70
2022/05/03 14:40:35;;;;;;;;;;;12.30;99.90;;;;;;5069517;28;19916;-70
2022/05/03 14:43:02;;;;;;;;;;;12.40;99.90;;;;;;5070753;28;19939;-70
2022/05/03 14:45:27;;;;;;;;;;;12.20;99.90;;;;;;5069944;28;19923;-69
2022/05/03 14:47:53;;;;;;;;;;;12.20;99.90;;;;;;5070170;28;19924;-69
2022/05/03 14:50:19;;;;;;;;;;;12.10;99.90;;;;;;5068533;28;19917;-69
2022/05/03 14:52:44;;;;;;;;;;;12.30;99.90;;;;;;5069616;28;19923;-70
2022/05/03 14:55:10;;;;;;;;;;;12.20;99.90;;;;;;5069592;28;19917;-70
2022/05/03 15:03:04;;;;;;;;;;;12.70;99.90;;;;;;5069664;28;19952;-70
2022/05/03 15:05:31;;;;;;;;;;;12.50;99.90;;;;;;5069967;28;20227;-70
2022/05/03 15:07:58;;;;;;;;;;;12.20;99.90;;;;;;5070015;28;19921;-69
2022/05/03 15:10:23;;;;;;;;;;;12.20;99.90;;;;;;5069787;28;20585;-69
2022/05/03 15:12:49;;;;;;;;;;;12.20;99.90;;;;;;5070105;28;20027;-70